sensor_id;sensor_type;location;lat;lon;timestamp;P1;durP1;ratioP1;P2;durP2;ratioP2
13415;SDS011;6779;50.150;8.680;2022-08-19T00:01:21;14.10;;;10.07;;
13415;SDS011;6779;50.150;8.680;2022-08-19T00:03:47;13.37;;;9.30;;
13415;SDS011;6779;50.150;8.680;2022-08-19T00:06:14;14.90;;;10.30;;
13415;SDS011;6779;50.150;8.680;2022-08-19T00:08:40;16.27;;;10.50;;
13415;SDS011;6779;50.150;8.680;2022-08-19T00:11:06;15.67;;;10.03;;
13415;SDS011;6779;50.150;8.680;2022-08-19T00:13:32;14.30;;;9.87;;
13415;SDS011;6779;50.150;8.680;2022-08-19T00:15:58;16.30;;;11.00;;
13415;SDS011;6779;50.150;8.680;2022-08-19T00:18:25;15.37;;;10.47;;
13415;SDS011;6779;50.150;8.680;2022-08-19T00:20:51;15.63;;;10.50;;
13415;SDS011;6779;50.150;8.680;2022-08-19T00:23:16;16.33;;;10.47;;
13415;SDS011;6779;50.150;8.680;2022-08-19T00:25:42;15.70;;;10.33;;
13415;SDS011;6779;50.150;8.680;2022-08-19T00:28:07;15.33;;;10.97;;
13415;SDS011;6779;50.150;8.680;2022-08-19T00:30:33;15.67;;;10.50;;
13415;SDS011;6779;50.150;8.680;2022-08-19T00:32:59;15.90;;;9.93;;
13415;SDS011;6779;50.150;8.680;2022-08-19T00:35:25;16.80;;;10.60;;
13415;SDS011;6779;50.150;8.680;2022-08-19T00:37:52;16.53;;;10.83;;
13415;SDS011;6779;50.150;8.680;2022-08-19T00:40:19;18.13;;;10.97;;
13415;SDS011;6779;50.150;8.680;2022-08-19T00:42:45;18.17;;;11.00;;
13415;SDS011;6779;50.150;8.680;2022-08-19T00:45:12;16.40;;;10.03;;
13415;SDS011;6779;50.150;8.680;2022-08-19T00:47:42;15.37;;;10.37;;
13415;SDS011;6779;50.150;8.680;2022-08-19T00:50:08;16.20;;;10.83;;
13415;SDS011;6779;50.150;8.680;2022-08-19T00:52:36;16.90;;;10.83;;
13415;SDS011;6779;50.150;8.680;2022-08-19T00:55:07;17.97;;;11.93;;
13415;SDS011;6779;50.150;8.680;2022-08-19T00:57:38;14.07;;;10.10;;
13415;SDS011;6779;50.150;8.680;2022-08-19T01:00:11;17.03;;;11.03;;
13415;SDS011;6779;50.150;8.680;2022-08-19T01:02:41;17.57;;;11.63;;
13415;SDS011;6779;50.150;8.680;2022-08-19T01:05:11;17.80;;;10.40;;
13415;SDS011;6779;50.150;8.680;2022-08-19T01:07:40;16.50;;;10.10;;
13415;SDS011;6779;50.150;8.680;2022-08-19T01:10:08;16.13;;;10.03;;
13415;SDS011;6779;50.150;8.680;2022-08-19T01:12:36;15.87;;;10.67;;
13415;SDS011;6779;50.150;8.680;2022-08-19T01:15:04;17.60;;;10.10;;
13415;SDS011;6779;50.150;8.680;2022-08-19T01:17:32;14.50;;;9.73;;
13415;SDS011;6779;50.150;8.680;2022-08-19T01:19:58;15.60;;;9.50;;
13415;SDS011;6779;50.150;8.680;2022-08-19T01:22:31;15.23;;;9.73;;
13415;SDS011;6779;50.150;8.680;2022-08-19T01:25:02;11.77;;;9.40;;
13415;SDS011;6779;50.150;8.680;2022-08-19T01:27:36;15.63;;;10.10;;
13415;SDS011;6779;50.150;8.680;2022-08-19T01:30:06;14.83;;;9.73;;
13415;SDS011;6779;50.150;8.680;2022-08-19T01:32:32;14.97;;;9.50;;
13415;SDS011;6779;50.150;8.680;2022-08-19T01:34:58;15.03;;;9.50;;
13415;SDS011;6779;50.150;8.680;2022-08-19T01:37:26;12.87;;;9.53;;
13415;SDS011;6779;50.150;8.680;2022-08-19T01:39:51;13.63;;;9.03;;
13415;SDS011;6779;50.150;8.680;2022-08-19T01:42:18;14.27;;;9.83;;
13415;SDS011;6779;50.150;8.680;2022-08-19T01:44:44;13.33;;;9.30;;
13415;SDS011;6779;50.150;8.680;2022-08-19T01:47:10;12.80;;;9.40;;
13415;SDS011;6779;50.150;8.680;2022-08-19T01:49:36;12.53;;;8.50;;
13415;SDS011;6779;50.150;8.680;2022-08-19T01:52:03;11.27;;;8.17;;
13415;SDS011;6779;50.150;8.680;2022-08-19T01:54:30;13.27;;;9.30;;
13415;SDS011;6779;50.150;8.680;2022-08-19T01:57:07;16.27;;;9.77;;
13415;SDS011;6779;50.150;8.680;2022-08-19T01:59:36;16.07;;;10.03;;
13415;SDS011;6779;50.150;8.680;2022-08-19T02:02:02;14.70;;;9.07;;
13415;SDS011;6779;50.150;8.680;2022-08-19T02:04:32;13.77;;;9.13;;
13415;SDS011;6779;50.150;8.680;2022-08-19T02:06:57;16.37;;;9.73;;
13415;SDS011;6779;50.150;8.680;2022-08-19T02:09:23;12.60;;;8.83;;
13415;SDS011;6779;50.150;8.680;2022-08-19T02:11:48;12.27;;;8.87;;
13415;SDS011;6779;50.150;8.680;2022-08-19T02:14:14;13.77;;;9.50;;
13415;SDS011;6779;50.150;8.680;2022-08-19T02:16:40;11.63;;;9.07;;
13415;SDS011;6779;50.150;8.680;2022-08-19T02:19:05;13.80;;;9.07;;
13415;SDS011;6779;50.150;8.680;2022-08-19T02:21:31;14.10;;;8.93;;
13415;SDS011;6779;50.150;8.680;2022-08-19T02:23:58;13.80;;;8.47;;
13415;SDS011;6779;50.150;8.680;2022-08-19T02:26:23;13.77;;;9.13;;
13415;SDS011;6779;50.150;8.680;2022-08-19T02:28:51;13.77;;;9.50;;
13415;SDS011;6779;50.150;8.680;2022-08-19T02:31:19;12.13;;;8.93;;
13415;SDS011;6779;50.150;8.680;2022-08-19T02:33:46;14.80;;;8.40;;
13415;SDS011;6779;50.150;8.680;2022-08-19T02:36:12;13.97;;;9.13;;
13415;SDS011;6779;50.150;8.680;2022-08-19T02:38:39;13.13;;;8.70;;
13415;SDS011;6779;50.150;8.680;2022-08-19T02:41:11;17.30;;;10.30;;
13415;SDS011;6779;50.150;8.680;2022-08-19T02:43:58;13.10;;;9.13;;
13415;SDS011;6779;50.150;8.680;2022-08-19T02:46:27;12.47;;;8.87;;
13415;SDS011;6779;50.150;8.680;2022-08-19T02:48:56;11.50;;;7.70;;
13415;SDS011;6779;50.150;8.680;2022-08-19T02:51:25;13.20;;;8.80;;
13415;SDS011;6779;50.150;8.680;2022-08-19T02:53:52;14.17;;;8.57;;
13415;SDS011;6779;50.150;8.680;2022-08-19T02:56:18;11.70;;;8.60;;
13415;SDS011;6779;50.150;8.680;2022-08-19T02:58:44;12.10;;;8.03;;
13415;SDS011;6779;50.150;8.680;2022-08-19T03:01:10;11.77;;;8.10;;
13415;SDS011;6779;50.150;8.680;2022-08-19T03:03:37;14.83;;;8.27;;
13415;SDS011;6779;50.150;8.680;2022-08-19T03:06:07;10.60;;;7.47;;
13415;SDS011;6779;50.150;8.680;2022-08-19T03:08:38;12.27;;;8.63;;
13415;SDS011;6779;50.150;8.680;2022-08-19T03:11:06;12.73;;;8.43;;
13415;SDS011;6779;50.150;8.680;2022-08-19T03:13:36;13.53;;;8.87;;
13415;SDS011;6779;50.150;8.680;2022-08-19T03:16:04;11.80;;;7.90;;
13415;SDS011;6779;50.150;8.680;2022-08-19T03:18:30;12.93;;;8.47;;
13415;SDS011;6779;50.150;8.680;2022-08-19T03:20:56;14.57;;;8.53;;
13415;SDS011;6779;50.150;8.680;2022-08-19T03:23:22;10.70;;;7.47;;
13415;SDS011;6779;50.150;8.680;2022-08-19T03:25:49;13.43;;;7.60;;
13415;SDS011;6779;50.150;8.680;2022-08-19T03:28:16;11.77;;;8.47;;
13415;SDS011;6779;50.150;8.680;2022-08-19T03:30:42;10.47;;;7.37;;
13415;SDS011;6779;50.150;8.680;2022-08-19T03:33:21;12.53;;;7.47;;
13415;SDS011;6779;50.150;8.680;2022-08-19T03:35:47;13.33;;;8.30;;
13415;SDS011;6779;50.150;8.680;2022-08-19T03:38:23;13.23;;;7.73;;
13415;SDS011;6779;50.150;8.680;2022-08-19T03:40:49;11.93;;;7.77;;
13415;SDS011;6779;50.150;8.680;2022-08-19T03:43:14;11.53;;;8.30;;
13415;SDS011;6779;50.150;8.680;2022-08-19T03:45:42;11.00;;;8.03;;
13415;SDS011;6779;50.150;8.680;2022-08-19T03:48:08;9.10;;;7.37;;
13415;SDS011;6779;50.150;8.680;2022-08-19T03:50:38;14.30;;;8.80;;
13415;SDS011;6779;50.150;8.680;2022-08-19T03:53:04;13.30;;;8.07;;
13415;SDS011;6779;50.150;8.680;2022-08-19T03:55:31;10.03;;;7.20;;
13415;SDS011;6779;50.150;8.680;2022-08-19T03:57:56;13.37;;;7.77;;
13415;SDS011;6779;50.150;8.680;2022-08-19T04:00:22;12.20;;;8.80;;
13415;SDS011;6779;50.150;8.680;2022-08-19T04:02:48;12.50;;;7.80;;
13415;SDS011;6779;50.150;8.680;2022-08-19T04:05:13;11.40;;;8.07;;
13415;SDS011;6779;50.150;8.680;2022-08-19T04:07:40;12.03;;;8.50;;
13415;SDS011;6779;50.150;8.680;2022-08-19T04:10:05;11.10;;;7.77;;
13415;SDS011;6779;50.150;8.680;2022-08-19T04:12:31;13.50;;;7.60;;
13415;SDS011;6779;50.150;8.680;2022-08-19T04:14:57;12.57;;;8.90;;
13415;SDS011;6779;50.150;8.680;2022-08-19T04:17:23;16.00;;;9.33;;
13415;SDS011;6779;50.150;8.680;2022-08-19T04:19:49;14.03;;;8.73;;
13415;SDS011;6779;50.150;8.680;2022-08-19T04:22:14;12.07;;;8.23;;
13415;SDS011;6779;50.150;8.680;2022-08-19T04:24:40;10.93;;;7.93;;
13415;SDS011;6779;50.150;8.680;2022-08-19T04:27:06;11.77;;;8.20;;
13415;SDS011;6779;50.150;8.680;2022-08-19T04:29:31;14.63;;;9.10;;
13415;SDS011;6779;50.150;8.680;2022-08-19T04:31:58;10.87;;;8.53;;
13415;SDS011;6779;50.150;8.680;2022-08-19T04:34:25;16.17;;;9.40;;
13415;SDS011;6779;50.150;8.680;2022-08-19T04:36:54;11.43;;;8.17;;
13415;SDS011;6779;50.150;8.680;2022-08-19T04:39:22;10.60;;;8.63;;
13415;SDS011;6779;50.150;8.680;2022-08-19T04:42:09;13.60;;;9.77;;
13415;SDS011;6779;50.150;8.680;2022-08-19T04:44:54;12.60;;;8.37;;
13415;SDS011;6779;50.150;8.680;2022-08-19T04:47:19;12.33;;;8.50;;
13415;SDS011;6779;50.150;8.680;2022-08-19T04:49:45;12.57;;;8.30;;
13415;SDS011;6779;50.150;8.680;2022-08-19T04:52:11;13.33;;;8.47;;
13415;SDS011;6779;50.150;8.680;2022-08-19T04:54:36;13.10;;;9.00;;
13415;SDS011;6779;50.150;8.680;2022-08-19T04:57:02;12.97;;;9.07;;
13415;SDS011;6779;50.150;8.680;2022-08-19T04:59:30;13.23;;;8.70;;
13415;SDS011;6779;50.150;8.680;2022-08-19T05:01:57;13.57;;;8.60;;
13415;SDS011;6779;50.150;8.680;2022-08-19T05:04:22;10.80;;;7.83;;
13415;SDS011;6779;50.150;8.680;2022-08-19T05:06:48;15.77;;;8.63;;
13415;SDS011;6779;50.150;8.680;2022-08-19T05:09:15;10.90;;;8.00;;
13415;SDS011;6779;50.150;8.680;2022-08-19T05:11:42;11.30;;;8.50;;
13415;SDS011;6779;50.150;8.680;2022-08-19T05:14:08;11.83;;;8.60;;
13415;SDS011;6779;50.150;8.680;2022-08-19T05:16:37;13.10;;;8.40;;
13415;SDS011;6779;50.150;8.680;2022-08-19T05:19:03;11.23;;;8.27;;
13415;SDS011;6779;50.150;8.680;2022-08-19T05:21:47;11.77;;;7.93;;
13415;SDS011;6779;50.150;8.680;2022-08-19T05:24:31;13.23;;;8.20;;
13415;SDS011;6779;50.150;8.680;2022-08-19T05:26:59;12.90;;;8.43;;
13415;SDS011;6779;50.150;8.680;2022-08-19T05:29:26;13.20;;;8.47;;
13415;SDS011;6779;50.150;8.680;2022-08-19T05:31:52;13.77;;;8.57;;
13415;SDS011;6779;50.150;8.680;2022-08-19T05:34:19;12.20;;;7.37;;
13415;SDS011;6779;50.150;8.680;2022-08-19T05:36:47;11.90;;;7.83;;
13415;SDS011;6779;50.150;8.680;2022-08-19T05:39:15;13.23;;;8.53;;
13415;SDS011;6779;50.150;8.680;2022-08-19T05:41:43;12.63;;;8.13;;
13415;SDS011;6779;50.150;8.680;2022-08-19T05:44:11;11.97;;;7.93;;
13415;SDS011;6779;50.150;8.680;2022-08-19T05:46:37;9.70;;;7.67;;
13415;SDS011;6779;50.150;8.680;2022-08-19T05:49:04;13.10;;;8.03;;
13415;SDS011;6779;50.150;8.680;2022-08-19T05:51:31;11.73;;;7.50;;
13415;SDS011;6779;50.150;8.680;2022-08-19T05:53:59;12.23;;;7.03;;
13415;SDS011;6779;50.150;8.680;2022-08-19T05:56:25;11.27;;;7.17;;
13415;SDS011;6779;50.150;8.680;2022-08-19T05:58:51;10.87;;;7.40;;
13415;SDS011;6779;50.150;8.680;2022-08-19T06:01:18;10.97;;;8.07;;
13415;SDS011;6779;50.150;8.680;2022-08-19T06:03:44;10.90;;;7.73;;
13415;SDS011;6779;50.150;8.680;2022-08-19T06:06:11;10.73;;;7.03;;
13415;SDS011;6779;50.150;8.680;2022-08-19T06:08:39;12.63;;;7.87;;
13415;SDS011;6779;50.150;8.680;2022-08-19T06:11:20;7.67;;;6.33;;
13415;SDS011;6779;50.150;8.680;2022-08-19T06:13:51;9.80;;;6.27;;
13415;SDS011;6779;50.150;8.680;2022-08-19T06:16:18;8.23;;;6.20;;
13415;SDS011;6779;50.150;8.680;2022-08-19T06:18:47;9.93;;;6.73;;
13415;SDS011;6779;50.150;8.680;2022-08-19T06:21:21;9.83;;;6.63;;
13415;SDS011;6779;50.150;8.680;2022-08-19T06:23:48;8.80;;;6.33;;
13415;SDS011;6779;50.150;8.680;2022-08-19T06:26:17;9.23;;;6.17;;
13415;SDS011;6779;50.150;8.680;2022-08-19T06:28:43;8.67;;;6.00;;
13415;SDS011;6779;50.150;8.680;2022-08-19T06:31:11;8.40;;;6.00;;
13415;SDS011;6779;50.150;8.680;2022-08-19T06:33:41;8.10;;;6.07;;
13415;SDS011;6779;50.150;8.680;2022-08-19T06:36:08;12.07;;;6.20;;
13415;SDS011;6779;50.150;8.680;2022-08-19T06:38:41;7.40;;;5.63;;
13415;SDS011;6779;50.150;8.680;2022-08-19T06:41:06;8.83;;;6.60;;
13415;SDS011;6779;50.150;8.680;2022-08-19T06:43:33;7.63;;;5.57;;
13415;SDS011;6779;50.150;8.680;2022-08-19T06:45:59;7.07;;;5.93;;
13415;SDS011;6779;50.150;8.680;2022-08-19T06:48:26;6.50;;;5.73;;
13415;SDS011;6779;50.150;8.680;2022-08-19T06:50:51;8.63;;;5.53;;
13415;SDS011;6779;50.150;8.680;2022-08-19T06:53:17;8.67;;;5.27;;
13415;SDS011;6779;50.150;8.680;2022-08-19T06:55:44;8.57;;;5.20;;
13415;SDS011;6779;50.150;8.680;2022-08-19T06:58:10;7.27;;;5.30;;
13415;SDS011;6779;50.150;8.680;2022-08-19T07:00:36;5.33;;;4.77;;
13415;SDS011;6779;50.150;8.680;2022-08-19T07:03:02;8.73;;;5.93;;
13415;SDS011;6779;50.150;8.680;2022-08-19T07:05:28;10.40;;;5.97;;
13415;SDS011;6779;50.150;8.680;2022-08-19T07:07:53;9.20;;;5.93;;
13415;SDS011;6779;50.150;8.680;2022-08-19T07:10:19;8.27;;;5.33;;
13415;SDS011;6779;50.150;8.680;2022-08-19T07:12:45;6.03;;;5.00;;
13415;SDS011;6779;50.150;8.680;2022-08-19T07:15:11;6.60;;;4.93;;
13415;SDS011;6779;50.150;8.680;2022-08-19T07:17:37;6.23;;;4.83;;
13415;SDS011;6779;50.150;8.680;2022-08-19T07:20:04;8.97;;;4.93;;
13415;SDS011;6779;50.150;8.680;2022-08-19T07:22:32;8.93;;;4.77;;
13415;SDS011;6779;50.150;8.680;2022-08-19T07:24:59;7.03;;;5.10;;
13415;SDS011;6779;50.150;8.680;2022-08-19T07:27:27;8.37;;;5.43;;
13415;SDS011;6779;50.150;8.680;2022-08-19T07:29:53;5.70;;;4.90;;
13415;SDS011;6779;50.150;8.680;2022-08-19T07:32:18;5.93;;;4.90;;
13415;SDS011;6779;50.150;8.680;2022-08-19T07:34:44;5.67;;;4.60;;
13415;SDS011;6779;50.150;8.680;2022-08-19T07:37:10;7.43;;;4.87;;
13415;SDS011;6779;50.150;8.680;2022-08-19T07:39:36;7.67;;;4.83;;
13415;SDS011;6779;50.150;8.680;2022-08-19T07:42:04;5.60;;;4.23;;
13415;SDS011;6779;50.150;8.680;2022-08-19T07:44:32;5.33;;;4.83;;
13415;SDS011;6779;50.150;8.680;2022-08-19T07:46:59;6.33;;;4.40;;
13415;SDS011;6779;50.150;8.680;2022-08-19T07:49:25;5.33;;;4.10;;
13415;SDS011;6779;50.150;8.680;2022-08-19T07:51:52;5.30;;;4.30;;
13415;SDS011;6779;50.150;8.680;2022-08-19T07:54:23;6.07;;;4.70;;
13415;SDS011;6779;50.150;8.680;2022-08-19T07:56:49;8.30;;;4.07;;
13415;SDS011;6779;50.150;8.680;2022-08-19T07:59:16;4.30;;;3.37;;
13415;SDS011;6779;50.150;8.680;2022-08-19T08:01:42;4.83;;;3.87;;
13415;SDS011;6779;50.150;8.680;2022-08-19T08:04:08;6.53;;;4.40;;
13415;SDS011;6779;50.150;8.680;2022-08-19T08:06:53;5.77;;;4.50;;
13415;SDS011;6779;50.150;8.680;2022-08-19T08:09:39;4.90;;;3.93;;
13415;SDS011;6779;50.150;8.680;2022-08-19T08:12:09;5.53;;;4.00;;
13415;SDS011;6779;50.150;8.680;2022-08-19T08:14:38;5.20;;;4.00;;
13415;SDS011;6779;50.150;8.680;2022-08-19T08:17:07;5.40;;;4.13;;
13415;SDS011;6779;50.150;8.680;2022-08-19T08:19:33;5.90;;;4.03;;
13415;SDS011;6779;50.150;8.680;2022-08-19T08:22:00;4.10;;;3.70;;
13415;SDS011;6779;50.150;8.680;2022-08-19T08:24:27;5.93;;;4.10;;
13415;SDS011;6779;50.150;8.680;2022-08-19T08:26:55;5.17;;;4.43;;
13415;SDS011;6779;50.150;8.680;2022-08-19T08:29:22;4.70;;;4.20;;
13415;SDS011;6779;50.150;8.680;2022-08-19T08:31:48;4.07;;;3.63;;
13415;SDS011;6779;50.150;8.680;2022-08-19T08:34:13;4.70;;;3.97;;
13415;SDS011;6779;50.150;8.680;2022-08-19T08:36:40;4.67;;;3.20;;
13415;SDS011;6779;50.150;8.680;2022-08-19T08:39:10;3.70;;;3.30;;
13415;SDS011;6779;50.150;8.680;2022-08-19T08:41:49;3.73;;;3.43;;
13415;SDS011;6779;50.150;8.680;2022-08-19T08:47:13;3.43;;;3.13;;
13415;SDS011;6779;50.150;8.680;2022-08-19T08:49:45;4.20;;;3.17;;
13415;SDS011;6779;50.150;8.680;2022-08-19T08:52:25;4.13;;;3.53;;
13415;SDS011;6779;50.150;8.680;2022-08-19T08:54:53;6.23;;;3.60;;
13415;SDS011;6779;50.150;8.680;2022-08-19T08:57:39;4.03;;;3.30;;
13415;SDS011;6779;50.150;8.680;2022-08-19T09:00:12;5.60;;;3.87;;
13415;SDS011;6779;50.150;8.680;2022-08-19T09:02:44;5.30;;;3.40;;
13415;SDS011;6779;50.150;8.680;2022-08-19T09:05:10;3.83;;;3.43;;
13415;SDS011;6779;50.150;8.680;2022-08-19T09:10:16;4.70;;;4.20;;
13415;SDS011;6779;50.150;8.680;2022-08-19T09:15:46;4.53;;;3.90;;
13415;SDS011;6779;50.150;8.680;2022-08-19T09:18:17;4.97;;;4.43;;
13415;SDS011;6779;50.150;8.680;2022-08-19T09:20:43;4.90;;;4.00;;
13415;SDS011;6779;50.150;8.680;2022-08-19T09:23:11;4.27;;;3.87;;
13415;SDS011;6779;50.150;8.680;2022-08-19T09:25:37;4.63;;;3.57;;
13415;SDS011;6779;50.150;8.680;2022-08-19T09:28:04;5.53;;;3.33;;
13415;SDS011;6779;50.150;8.680;2022-08-19T09:30:32;5.67;;;4.13;;
13415;SDS011;6779;50.150;8.680;2022-08-19T09:33:04;4.97;;;4.20;;
13415;SDS011;6779;50.150;8.680;2022-08-19T09:35:31;4.43;;;4.00;;
13415;SDS011;6779;50.150;8.680;2022-08-19T09:37:57;7.13;;;4.30;;
13415;SDS011;6779;50.150;8.680;2022-08-19T09:40:23;5.25;;;4.57;;
13415;SDS011;6779;50.150;8.680;2022-08-19T09:42:50;4.32;;;3.80;;
13415;SDS011;6779;50.150;8.680;2022-08-19T09:45:19;5.00;;;3.97;;
13415;SDS011;6779;50.150;8.680;2022-08-19T09:47:46;3.67;;;3.33;;
13415;SDS011;6779;50.150;8.680;2022-08-19T09:50:14;4.25;;;3.85;;
13415;SDS011;6779;50.150;8.680;2022-08-19T09:52:39;5.18;;;3.67;;
13415;SDS011;6779;50.150;8.680;2022-08-19T09:55:07;5.95;;;3.63;;
13415;SDS011;6779;50.150;8.680;2022-08-19T09:57:34;5.75;;;3.50;;
13415;SDS011;6779;50.150;8.680;2022-08-19T10:00:00;3.97;;;3.58;;
13415;SDS011;6779;50.150;8.680;2022-08-19T10:02:27;4.32;;;3.92;;
13415;SDS011;6779;50.150;8.680;2022-08-19T10:04:53;6.05;;;3.97;;
13415;SDS011;6779;50.150;8.680;2022-08-19T10:07:37;5.45;;;3.90;;
13415;SDS011;6779;50.150;8.680;2022-08-19T10:10:04;5.38;;;4.50;;
13415;SDS011;6779;50.150;8.680;2022-08-19T10:12:31;5.20;;;4.45;;
13415;SDS011;6779;50.150;8.680;2022-08-19T10:14:58;5.15;;;4.65;;
13415;SDS011;6779;50.150;8.680;2022-08-19T10:17:24;11.10;;;5.20;;
13415;SDS011;6779;50.150;8.680;2022-08-19T10:19:50;18.77;;;5.00;;
13415;SDS011;6779;50.150;8.680;2022-08-19T10:22:17;5.47;;;4.30;;
13415;SDS011;6779;50.150;8.680;2022-08-19T10:24:43;5.38;;;4.60;;
13415;SDS011;6779;50.150;8.680;2022-08-19T10:27:10;5.38;;;4.88;;
13415;SDS011;6779;50.150;8.680;2022-08-19T10:29:37;4.63;;;4.20;;
13415;SDS011;6779;50.150;8.680;2022-08-19T10:32:04;5.75;;;4.50;;
13415;SDS011;6779;50.150;8.680;2022-08-19T10:34:33;5.18;;;4.50;;
13415;SDS011;6779;50.150;8.680;2022-08-19T10:37:01;5.78;;;5.00;;
13415;SDS011;6779;50.150;8.680;2022-08-19T10:39:30;6.07;;;5.32;;
13415;SDS011;6779;50.150;8.680;2022-08-19T10:41:57;5.35;;;4.68;;
13415;SDS011;6779;50.150;8.680;2022-08-19T10:44:23;6.53;;;5.03;;
13415;SDS011;6779;50.150;8.680;2022-08-19T10:46:49;5.50;;;4.45;;
13415;SDS011;6779;50.150;8.680;2022-08-19T10:49:15;7.57;;;4.93;;
13415;SDS011;6779;50.150;8.680;2022-08-19T10:51:41;6.65;;;5.88;;
13415;SDS011;6779;50.150;8.680;2022-08-19T10:54:26;5.88;;;4.82;;
13415;SDS011;6779;50.150;8.680;2022-08-19T10:57:12;6.28;;;4.25;;
13415;SDS011;6779;50.150;8.680;2022-08-19T10:59:38;5.05;;;4.55;;
13415;SDS011;6779;50.150;8.680;2022-08-19T11:02:05;5.78;;;5.28;;
13415;SDS011;6779;50.150;8.680;2022-08-19T11:04:34;8.48;;;5.75;;
13415;SDS011;6779;50.150;8.680;2022-08-19T11:07:01;7.90;;;6.10;;
13415;SDS011;6779;50.150;8.680;2022-08-19T11:09:28;5.75;;;5.25;;
13415;SDS011;6779;50.150;8.680;2022-08-19T11:11:53;8.10;;;6.35;;
13415;SDS011;6779;50.150;8.680;2022-08-19T11:14:21;6.22;;;5.63;;
13415;SDS011;6779;50.150;8.680;2022-08-19T11:16:49;7.07;;;6.38;;
13415;SDS011;6779;50.150;8.680;2022-08-19T11:19:15;6.95;;;6.25;;
13415;SDS011;6779;50.150;8.680;2022-08-19T11:21:44;6.22;;;5.57;;
13415;SDS011;6779;50.150;8.680;2022-08-19T11:24:16;7.00;;;5.97;;
13415;SDS011;6779;50.150;8.680;2022-08-19T11:26:44;9.07;;;6.18;;
13415;SDS011;6779;50.150;8.680;2022-08-19T11:29:11;7.78;;;6.45;;
13415;SDS011;6779;50.150;8.680;2022-08-19T11:31:39;6.75;;;6.15;;
13415;SDS011;6779;50.150;8.680;2022-08-19T11:34:07;7.25;;;5.53;;
13415;SDS011;6779;50.150;8.680;2022-08-19T11:36:34;6.55;;;5.95;;
13415;SDS011;6779;50.150;8.680;2022-08-19T11:39:04;6.75;;;6.15;;
13415;SDS011;6779;50.150;8.680;2022-08-19T11:41:31;5.95;;;5.40;;
13415;SDS011;6779;50.150;8.680;2022-08-19T11:43:56;7.28;;;6.10;;
13415;SDS011;6779;50.150;8.680;2022-08-19T11:46:23;8.15;;;7.30;;
13415;SDS011;6779;50.150;8.680;2022-08-19T11:48:50;7.75;;;7.05;;
13415;SDS011;6779;50.150;8.680;2022-08-19T11:51:18;8.38;;;6.82;;
13415;SDS011;6779;50.150;8.680;2022-08-19T11:53:49;9.43;;;6.70;;
13415;SDS011;6779;50.150;8.680;2022-08-19T11:56:15;8.45;;;6.97;;
13415;SDS011;6779;50.150;8.680;2022-08-19T11:58:41;7.50;;;6.80;;
13415;SDS011;6779;50.150;8.680;2022-08-19T12:01:08;7.78;;;7.00;;
13415;SDS011;6779;50.150;8.680;2022-08-19T12:03:36;7.15;;;6.32;;
13415;SDS011;6779;50.150;8.680;2022-08-19T12:06:03;6.93;;;6.30;;
13415;SDS011;6779;50.150;8.680;2022-08-19T12:08:40;6.90;;;6.18;;
13415;SDS011;6779;50.150;8.680;2022-08-19T12:11:07;6.63;;;5.93;;
13415;SDS011;6779;50.150;8.680;2022-08-19T12:13:33;8.05;;;6.05;;
13415;SDS011;6779;50.150;8.680;2022-08-19T12:15:59;7.82;;;6.47;;
13415;SDS011;6779;50.150;8.680;2022-08-19T12:18:26;8.05;;;6.63;;
13415;SDS011;6779;50.150;8.680;2022-08-19T12:20:52;7.70;;;6.30;;
13415;SDS011;6779;50.150;8.680;2022-08-19T12:23:21;8.00;;;7.03;;
13415;SDS011;6779;50.150;8.680;2022-08-19T12:25:48;9.15;;;7.47;;
13415;SDS011;6779;50.150;8.680;2022-08-19T12:28:18;8.13;;;7.32;;
13415;SDS011;6779;50.150;8.680;2022-08-19T12:30:45;7.90;;;7.07;;
13415;SDS011;6779;50.150;8.680;2022-08-19T12:33:11;8.88;;;6.78;;
13415;SDS011;6779;50.150;8.680;2022-08-19T12:35:42;9.02;;;7.05;;
13415;SDS011;6779;50.150;8.680;2022-08-19T12:38:10;8.30;;;7.20;;
13415;SDS011;6779;50.150;8.680;2022-08-19T12:40:36;8.90;;;7.72;;
13415;SDS011;6779;50.150;8.680;2022-08-19T12:43:05;8.75;;;7.45;;
13415;SDS011;6779;50.150;8.680;2022-08-19T12:45:31;7.25;;;6.55;;
13415;SDS011;6779;50.150;8.680;2022-08-19T12:47:57;8.18;;;7.10;;
13415;SDS011;6779;50.150;8.680;2022-08-19T12:50:23;9.88;;;6.47;;
13415;SDS011;6779;50.150;8.680;2022-08-19T12:52:49;8.20;;;6.65;;
13415;SDS011;6779;50.150;8.680;2022-08-19T12:55:14;8.77;;;7.35;;
13415;SDS011;6779;50.150;8.680;2022-08-19T12:57:40;7.38;;;6.57;;
13415;SDS011;6779;50.150;8.680;2022-08-19T13:00:13;8.23;;;6.93;;
13415;SDS011;6779;50.150;8.680;2022-08-19T13:02:42;8.38;;;7.22;;
13415;SDS011;6779;50.150;8.680;2022-08-19T13:05:11;7.25;;;6.18;;
13415;SDS011;6779;50.150;8.680;2022-08-19T13:07:40;7.50;;;6.80;;
13415;SDS011;6779;50.150;8.680;2022-08-19T13:10:09;7.03;;;6.32;;
13415;SDS011;6779;50.150;8.680;2022-08-19T13:12:37;6.70;;;6.00;;
13415;SDS011;6779;50.150;8.680;2022-08-19T13:15:03;5.55;;;4.90;;
13415;SDS011;6779;50.150;8.680;2022-08-19T13:17:30;6.95;;;5.47;;
13415;SDS011;6779;50.150;8.680;2022-08-19T13:19:55;5.50;;;5.00;;
13415;SDS011;6779;50.150;8.680;2022-08-19T13:22:21;5.95;;;5.32;;
13415;SDS011;6779;50.150;8.680;2022-08-19T13:24:46;6.95;;;5.30;;
13415;SDS011;6779;50.150;8.680;2022-08-19T13:27:14;5.90;;;4.95;;
13415;SDS011;6779;50.150;8.680;2022-08-19T13:29:40;6.78;;;5.68;;
13415;SDS011;6779;50.150;8.680;2022-08-19T13:32:25;6.90;;;5.10;;
13415;SDS011;6779;50.150;8.680;2022-08-19T13:35:09;6.45;;;5.50;;
13415;SDS011;6779;50.150;8.680;2022-08-19T13:37:34;5.25;;;4.75;;
13415;SDS011;6779;50.150;8.680;2022-08-19T13:40:10;7.25;;;4.93;;
13415;SDS011;6779;50.150;8.680;2022-08-19T13:42:42;6.72;;;5.05;;
13415;SDS011;6779;50.150;8.680;2022-08-19T13:45:09;6.05;;;5.13;;
13415;SDS011;6779;50.150;8.680;2022-08-19T13:47:35;5.38;;;4.72;;
13415;SDS011;6779;50.150;8.680;2022-08-19T13:50:07;5.63;;;4.93;;
13415;SDS011;6779;50.150;8.680;2022-08-19T13:52:34;5.75;;;4.93;;
13415;SDS011;6779;50.150;8.680;2022-08-19T13:54:59;5.32;;;4.82;;
13415;SDS011;6779;50.150;8.680;2022-08-19T13:57:25;5.70;;;5.18;;
13415;SDS011;6779;50.150;8.680;2022-08-19T13:59:51;7.20;;;5.43;;
13415;SDS011;6779;50.150;8.680;2022-08-19T14:02:16;5.32;;;4.43;;
13415;SDS011;6779;50.150;8.680;2022-08-19T14:04:42;7.00;;;5.15;;
13415;SDS011;6779;50.150;8.680;2022-08-19T14:07:07;8.10;;;4.60;;
13415;SDS011;6779;50.150;8.680;2022-08-19T14:09:34;4.90;;;4.40;;
13415;SDS011;6779;50.150;8.680;2022-08-19T14:12:00;5.40;;;4.90;;
13415;SDS011;6779;50.150;8.680;2022-08-19T14:14:25;4.40;;;4.10;;
13415;SDS011;6779;50.150;8.680;2022-08-19T14:16:51;4.30;;;3.90;;
13415;SDS011;6779;50.150;8.680;2022-08-19T14:19:17;4.40;;;4.03;;
13415;SDS011;6779;50.150;8.680;2022-08-19T14:21:42;6.53;;;4.28;;
13415;SDS011;6779;50.150;8.680;2022-08-19T14:24:08;3.67;;;3.38;;
13415;SDS011;6779;50.150;8.680;2022-08-19T14:26:33;4.30;;;3.83;;
13415;SDS011;6779;50.150;8.680;2022-08-19T14:28:59;5.43;;;3.97;;
13415;SDS011;6779;50.150;8.680;2022-08-19T14:31:26;5.05;;;3.92;;
13415;SDS011;6779;50.150;8.680;2022-08-19T14:33:51;4.20;;;3.80;;
13415;SDS011;6779;50.150;8.680;2022-08-19T14:36:17;4.22;;;3.83;;
13415;SDS011;6779;50.150;8.680;2022-08-19T14:38:44;5.03;;;4.53;;
13415;SDS011;6779;50.150;8.680;2022-08-19T14:41:12;4.43;;;3.70;;
13415;SDS011;6779;50.150;8.680;2022-08-19T14:43:41;4.82;;;3.97;;
13415;SDS011;6779;50.150;8.680;2022-08-19T14:46:07;4.63;;;4.05;;
13415;SDS011;6779;50.150;8.680;2022-08-19T14:48:33;4.85;;;4.45;;
13415;SDS011;6779;50.150;8.680;2022-08-19T14:50:59;4.00;;;3.60;;
13415;SDS011;6779;50.150;8.680;2022-08-19T14:53:24;3.97;;;3.65;;
13415;SDS011;6779;50.150;8.680;2022-08-19T14:55:50;4.97;;;4.35;;
13415;SDS011;6779;50.150;8.680;2022-08-19T14:58:16;5.03;;;4.53;;
13415;SDS011;6779;50.150;8.680;2022-08-19T15:00:42;4.25;;;3.83;;
13415;SDS011;6779;50.150;8.680;2022-08-19T15:03:07;3.80;;;3.50;;
13415;SDS011;6779;50.150;8.680;2022-08-19T15:05:33;5.93;;;3.95;;
13415;SDS011;6779;50.150;8.680;2022-08-19T15:08:03;5.78;;;3.95;;